Time;durP1;ratioP1;P1;durP2;ratioP2;P2;SDS_P1;SDS_P2;PMS_P1;PMS_P2;Temp;Humidity;BMP_temperature;BMP_pressure;BME280_temperature;BME280_humidity;BME280_pressure;Samples;Min_cycle;Max_cycle;Signal;HPM_P1;HPM_P2
2024/03/21 00:02:05;;;;;;;19.95;10.43;;;;;;;8.68;63.78;101770.09;5026674;28;20029;-72
2024/03/21 00:04:31;;;;;;;22.67;11.50;;;;;;;8.34;64.41;101773.28;5036038;28;20423;-72
2024/03/21 00:06:56;;;;;;;28.85;13.93;;;;;;;8.39;64.50;101771.47;5023483;28;20083;-72
2024/03/21 00:09:22;;;;;;;25.08;13.52;;;;;;;8.73;63.69;101765.69;5035681;28;20029;-72
2024/03/21 00:11:48;;;;;;;27.38;13.52;;;;;;;8.63;63.77;101762.38;5036006;28;20093;-74
2024/03/21 00:14:15;;;;;;;24.45;13.27;;;;;;;8.29;64.60;101754.25;5028556;28;20090;-71
2024/03/21 00:16:41;;;;;;;28.38;13.77;;;;;;;8.28;64.53;101757.75;5029106;28;20218;-70
2024/03/21 00:19:07;;;;;;;25.83;14.57;;;;;;;8.37;64.65;101752.38;5028351;28;20124;-71
2024/03/21 00:21:32;;;;;;;24.45;14.15;;;;;;;8.36;64.38;101750.69;5030146;28;20040;-71
2024/03/21 00:23:58;;;;;;;28.70;14.45;;;;;;;7.93;65.32;101746.13;5024076;28;20194;-71
2024/03/21 00:26:23;;;;;;;24.88;13.55;;;;;;;8.28;64.38;101742.97;5034866;28;20167;-70
2024/03/21 00:28:49;;;;;;;26.60;13.95;;;;;;;8.31;64.29;101748.13;5027785;28;20116;-70
2024/03/21 00:31:16;;;;;;;26.10;13.95;;;;;;;7.97;65.25;101750.41;5027622;28;20028;-69
2024/03/21 00:33:47;;;;;;;25.48;12.00;;;;;;;8.07;65.49;101759.81;5025714;28;20052;-70
2024/03/21 00:36:17;;;;;;;25.98;11.82;;;;;;;7.83;65.95;101757.59;5027974;28;20580;-69
2024/03/21 00:38:43;;;;;;;23.35;12.52;;;;;;;8.24;64.64;101754.31;5015655;28;20052;-70
2024/03/21 00:41:09;;;;;;;24.00;11.10;;;;;;;7.78;66.30;101754.16;5029651;27;20478;-70
2024/03/21 00:43:34;;;;;;;21.92;11.15;;;;;;;7.82;65.93;101745.44;5031243;28;20052;-70
2024/03/21 00:46:00;;;;;;;19.75;9.90;;;;;;;8.13;64.76;101749.28;5024019;28;20487;-70
2024/03/21 00:48:26;;;;;;;22.30;10.65;;;;;;;7.95;65.41;101744.38;5028379;28;20044;-70
2024/03/21 00:50:51;;;;;;;20.95;10.07;;;;;;;7.92;65.33;101727.06;5029918;28;20036;-69
2024/03/21 00:53:16;;;;;;;14.82;8.85;;;;;;;8.08;65.07;101734.63;5008936;28;20044;-70
2024/03/21 00:55:42;;;;;;;20.42;8.90;;;;;;;8.12;64.59;101728.50;5033450;28;20032;-71
2024/03/21 00:58:08;;;;;;;16.30;8.90;;;;;;;8.00;64.86;101715.66;5027406;28;20040;-71
2024/03/21 01:00:35;;;;;;;16.92;7.55;;;;;;;7.87;64.99;101725.38;5031381;28;20036;-71
2024/03/21 01:03:02;;;;;;;15.43;8.02;;;;;;;7.79;65.55;101728.13;5006399;28;20029;-72
2024/03/21 01:05:28;;;;;;;13.75;7.35;;;;;;;7.88;64.94;101721.94;5029779;28;20029;-72
2024/03/21 01:07:53;;;;;;;11.60;6.97;;;;;;;7.96;65.16;101730.50;5030568;28;20036;-72
2024/03/21 01:10:19;;;;;;;11.95;7.20;;;;;;;7.42;67.00;101733.81;5026017;28;20033;-71
2024/03/21 01:12:44;;;;;;;13.73;8.32;;;;;;;7.67;65.85;101736.97;5029990;28;20045;-72
2024/03/21 01:15:10;;;;;;;12.75;5.97;;;;;;;7.70;65.96;101731.72;5023860;28;20952;-72
2024/03/21 01:17:36;;;;;;;12.55;7.05;;;;;;;8.11;64.75;101735.47;5037314;28;20041;-72
2024/03/21 01:20:03;;;;;;;10.80;6.85;;;;;;;8.32;63.85;101736.84;5020751;28;20513;-73
2024/03/21 01:22:29;;;;;;;9.75;4.85;;;;;;;8.08;63.88;101735.50;5021322;28;20028;-71
2024/03/21 01:24:54;;;;;;;13.55;6.00;;;;;;;7.70;65.69;101731.72;5025284;28;20071;-72
2024/03/21 01:27:20;;;;;;;9.13;5.82;;;;;;;8.08;64.48;101730.28;5027878;28;20041;-73
2024/03/21 01:29:46;;;;;;;10.38;5.22;;;;;;;8.00;65.23;101726.06;5028735;28;20052;-71
2024/03/21 01:32:12;;;;;;;9.43;5.90;;;;;;;7.72;65.59;101718.69;5022562;28;20037;-71
2024/03/21 01:34:37;;;;;;;9.60;4.35;;;;;;;7.88;65.21;101716.72;5032564;28;20034;-68
2024/03/21 01:37:03;;;;;;;8.98;4.70;;;;;;;7.97;64.97;101721.78;5026469;28;20039;-67
2024/03/21 01:39:28;;;;;;;11.63;5.18;;;;;;;7.87;65.37;101728.88;5030971;28;20036;-67
2024/03/21 01:41:54;;;;;;;11.00;5.55;;;;;;;8.25;64.21;101734.34;5023743;28;20494;-67
2024/03/21 01:44:19;;;;;;;11.77;4.28;;;;;;;7.81;65.72;101738.53;5026358;28;20466;-69
2024/03/21 01:46:46;;;;;;;7.38;4.43;;;;;;;8.18;64.48;101741.41;5027045;28;20525;-69
2024/03/21 01:49:12;;;;;;;6.90;4.60;;;;;;;8.13;64.33;101725.84;5023865;28;20033;-68
2024/03/21 01:51:39;;;;;;;10.20;5.15;;;;;;;7.46;66.47;101719.00;5027633;28;20159;-68
2024/03/21 01:54:06;;;;;;;6.30;4.68;;;;;;;7.50;66.56;101705.94;5022970;28;20033;-69
2024/03/21 01:56:33;;;;;;;9.68;5.57;;;;;;;7.62;65.71;101717.94;5029569;28;20051;-71
2024/03/21 01:58:59;;;;;;;9.70;5.50;;;;;;;7.67;66.16;101710.09;5024607;28;20041;-70
2024/03/21 02:01:29;;;;;;;8.50;4.88;;;;;;;7.50;66.61;101718.94;5030639;28;20077;-70
2024/03/21 02:03:57;;;;;;;9.35;5.47;;;;;;;7.54;66.43;101711.97;5028521;28;20028;-70
2024/03/21 02:06:23;;;;;;;8.25;5.07;;;;;;;7.73;65.85;101712.59;5025675;28;20040;-70
2024/03/21 02:08:52;;;;;;;9.82;4.45;;;;;;;7.36;66.05;101713.09;5027670;28;20200;-68
2024/03/21 02:11:18;;;;;;;7.07;4.78;;;;;;;7.50;66.46;101725.91;5027316;28;20609;-70
2024/03/21 02:13:44;;;;;;;9.77;5.35;;;;;;;7.49;66.35;101708.59;5025883;28;20041;-71
2024/03/21 02:16:11;;;;;;;8.10;4.70;;;;;;;7.65;65.73;101715.31;5024524;28;20112;-70
2024/03/21 02:18:37;;;;;;;16.27;5.32;;;;;;;7.50;66.35;101716.34;5027873;28;20136;-70
2024/03/21 02:21:06;;;;;;;9.15;5.60;;;;;;;7.41;66.32;101705.22;5015319;28;20031;-71
2024/03/21 02:23:32;;;;;;;5.75;4.65;;;;;;;7.63;65.54;101717.09;5027674;28;20048;-70
2024/03/21 02:25:58;;;;;;;8.13;4.38;;;;;;;7.55;66.19;101724.13;5034448;28;20039;-67
2024/03/21 02:28:25;;;;;;;8.45;5.15;;;;;;;7.55;65.50;101721.53;5022678;28;20040;-67
2024/03/21 02:30:52;;;;;;;13.38;5.13;;;;;;;7.48;65.80;101712.06;5032455;28;20029;-68
2024/03/21 02:33:19;;;;;;;8.90;5.45;;;;;;;7.27;66.01;101719.25;5021039;28;20448;-70
2024/03/21 02:35:45;;;;;;;10.07;6.03;;;;;;;7.35;65.92;101715.69;5030456;28;20123;-69
2024/03/21 02:38:10;;;;;;;9.20;5.70;;;;;;;6.89;66.85;101725.78;5020317;28;20419;-70
2024/03/21 02:40:36;;;;;;;12.10;6.43;;;;;;;7.07;65.62;101716.91;5031708;28;20465;-71
2024/03/21 02:43:02;;;;;;;10.80;6.25;;;;;;;6.65;66.66;101718.25;5024739;28;20033;-71
2024/03/21 02:45:27;;;;;;;12.13;5.60;;;;;;;6.73;66.27;101725.94;5026642;28;20037;-71
2024/03/21 02:47:53;;;;;;;14.25;5.68;;;;;;;6.83;65.78;101724.97;5015420;28;20048;-71
2024/03/21 02:50:18;;;;;;;15.05;6.68;;;;;;;7.01;65.60;101721.31;5020354;28;20037;-72
2024/03/21 02:52:45;;;;;;;14.85;6.88;;;;;;;6.64;66.26;101737.28;5029900;28;20060;-71
2024/03/21 02:55:10;;;;;;;14.05;5.93;;;;;;;6.89;65.54;101738.78;5021342;28;20134;-71
2024/03/21 02:57:36;;;;;;;9.15;4.63;;;;;;;6.45;65.91;101739.19;5029595;28;20421;-71
2024/03/21 03:00:01;;;;;;;11.35;4.20;;;;;;;6.53;65.39;101752.09;5024815;28;20033;-71
2024/03/21 03:02:28;;;;;;;11.32;3.50;;;;;;;6.04;65.84;101751.63;5027750;28;20036;-71
2024/03/21 03:04:53;;;;;;;6.88;4.43;;;;;;;5.74;66.65;101757.84;5036900;28;20036;-70
2024/03/21 03:07:19;;;;;;;12.25;3.83;;;;;;;5.70;65.71;101757.88;5024820;28;20044;-71
2024/03/21 03:09:44;;;;;;;11.70;4.82;;;;;;;5.39;66.99;101765.78;5019669;28;20045;-71
2024/03/21 03:12:10;;;;;;;8.13;4.10;;;;;;;5.54;66.36;101762.28;5023022;28;20058;-71
2024/03/21 03:14:35;;;;;;;10.00;4.20;;;;;;;5.74;65.86;101768.22;5032947;28;20501;-71
2024/03/21 03:17:01;;;;;;;11.50;5.47;;;;;;;5.64;64.45;101770.00;5026552;28;20044;-72
2024/03/21 03:19:28;;;;;;;19.98;6.28;;;;;;;5.35;65.53;101770.13;5031442;28;20430;-72
2024/03/21 03:21:53;;;;;;;16.35;6.15;;;;;;;5.08;66.00;101767.63;5031767;28;20059;-71
2024/03/21 03:24:18;;;;;;;14.07;6.65;;;;;;;4.76;66.28;101769.38;5028673;28;21437;-71
2024/03/21 03:26:44;;;;;;;12.40;6.43;;;;;;;4.66;66.61;101777.19;5031270;28;20032;-71
2024/03/21 03:29:10;;;;;;;22.80;8.05;;;;;;;4.90;65.56;101789.25;5027783;28;20521;-71
2024/03/21 03:31:36;;;;;;;12.68;6.35;;;;;;;4.99;65.27;101777.16;5031966;28;20702;-70
2024/03/21 03:36:45;;;;;;;11.05;4.57;;;;;;;4.96;64.96;101791.84;5030761;28;20037;-71
2024/03/21 03:39:12;;;;;;;11.25;4.90;;;;;;;4.50;66.07;101807.38;5010188;28;20058;-73
2024/03/21 03:41:37;;;;;;;10.23;5.63;;;;;;;4.47;66.09;101805.66;5032648;28;20028;-72
2024/03/21 03:44:03;;;;;;;11.63;5.43;;;;;;;4.55;65.85;101816.03;5031041;28;20225;-73
2024/03/21 03:46:28;;;;;;;11.02;5.88;;;;;;;4.83;65.37;101815.16;5036998;28;20028;-72
2024/03/21 03:48:54;;;;;;;13.20;6.22;;;;;;;4.89;64.38;101816.03;5031650;28;20033;-73
2024/03/21 03:51:19;;;;;;;12.05;6.22;;;;;;;4.96;64.54;101825.53;5027520;28;20102;-68
2024/03/21 03:53:45;;;;;;;14.52;6.25;;;;;;;4.62;65.17;101818.59;5019674;28;20047;-67
2024/03/21 03:56:10;;;;;;;12.07;6.15;;;;;;;4.67;65.02;101823.78;5025950;28;20028;-66
2024/03/21 03:58:36;;;;;;;13.57;7.00;;;;;;;4.80;63.83;101832.41;5029598;28;20561;-68
2024/03/21 04:01:02;;;;;;;9.50;5.85;;;;;;;4.46;64.36;101841.91;5033674;28;20560;-67
2024/03/21 04:03:28;;;;;;;10.70;5.25;;;;;;;4.45;64.68;101845.34;5020045;28;22489;-67
2024/03/21 04:06:02;;;;;;;10.48;4.05;;;;;;;4.38;64.48;101847.91;5048451;28;20079;-66
2024/03/21 04:08:28;;;;;;;6.45;3.33;;;;;;;4.27;64.47;101841.88;5021522;28;20380;-66
2024/03/21 04:10:58;;;;;;;9.23;4.68;;;;;;;4.39;63.86;101847.06;5032633;28;20039;-66
2024/03/21 04:13:23;;;;;;;4.28;1.63;;;;;;;4.01;64.05;101857.34;5013075;28;20040;-67
2024/03/21 04:15:56;;;;;;;14.05;2.40;;;;;;;3.97;63.52;101860.78;5033403;28;20577;-66
2024/03/21 04:18:23;;;;;;;2.92;1.38;;;;;;;3.74;63.83;101865.88;5023925;28;20476;-67
2024/03/21 04:20:50;;;;;;;2.53;1.17;;;;;;;3.69;64.28;101868.41;5031853;28;20120;-66
2024/03/21 04:23:16;;;;;;;4.70;1.10;;;;;;;4.07;63.43;101872.00;5021627;28;20048;-68
2024/03/21 04:25:41;;;;;;;5.40;1.38;;;;;;;3.64;64.32;101890.78;5031648;28;20055;-68
2024/03/21 04:28:07;;;;;;;7.78;1.60;;;;;;;3.87;64.32;101890.91;5030187;28;20083;-68
2024/03/21 04:30:33;;;;;;;7.43;1.85;;;;;;;3.46;65.07;101895.88;5030416;28;20082;-69
2024/03/21 04:32:58;;;;;;;4.28;1.27;;;;;;;3.50;64.82;101897.63;5034455;28;20048;-68
2024/03/21 04:35:24;;;;;;;10.43;1.15;;;;;;;4.30;62.64;101897.97;5024874;28;20024;-71
2024/03/21 04:37:49;;;;;;;5.68;0.98;;;;;;;4.10;62.82;101903.09;5032170;28;20588;-71
2024/03/21 04:40:15;;;;;;;8.10;2.17;;;;;;;3.90;62.96;101908.19;5021510;28;20040;-71
2024/03/21 04:42:40;;;;;;;3.05;1.05;;;;;;;4.31;61.79;101905.72;5022398;28;20049;-75
2024/03/21 04:45:06;;;;;;;8.52;1.65;;;;;;;4.00;62.84;101915.94;5020047;28;20028;-68
2024/03/21 04:47:33;;;;;;;12.02;1.42;;;;;;;3.39;64.64;101910.47;5024779;28;20391;-69
2024/03/21 04:49:58;;;;;;;8.25;1.65;;;;;;;3.85;63.65;101902.97;5030246;28;20040;-71
2024/03/21 04:52:25;;;;;;;7.68;2.03;;;;;;;3.65;64.09;101909.75;5023495;28;20041;-72
2024/03/21 04:54:51;;;;;;;10.57;1.80;;;;;;;3.78;63.53;101904.69;5030061;28;20035;-71
2024/03/21 04:57:16;;;;;;;8.20;1.40;;;;;;;3.96;62.66;101914.25;5024980;28;20522;-70
2024/03/21 04:59:42;;;;;;;11.40;2.40;;;;;;;3.94;62.98;101913.38;5031988;28;20025;-69
2024/03/21 05:02:08;;;;;;;6.50;1.92;;;;;;;4.00;63.31;101923.72;5030129;28;20032;-71
2024/03/21 05:04:33;;;;;;;9.45;2.45;;;;;;;3.96;63.38;101915.94;5027169;28;20032;-69
2024/03/21 05:06:59;;;;;;;13.55;2.20;;;;;;;3.94;63.39;101928.88;5027811;28;20039;-70
2024/03/21 05:09:24;;;;;;;8.27;1.92;;;;;;;3.97;62.56;101925.44;5026011;28;20159;-70
2024/03/21 05:11:52;;;;;;;14.77;2.00;;;;;;;3.92;63.17;101927.16;5029061;28;21390;-70
2024/03/21 05:14:17;;;;;;;5.38;2.55;;;;;;;3.93;63.11;101927.13;5024155;28;20037;-73
2024/03/21 05:16:46;;;;;;;5.18;1.40;;;;;;;3.85;63.26;101934.03;5031991;28;20025;-70
2024/03/21 05:19:12;;;;;;;7.95;2.10;;;;;;;4.15;62.31;101929.81;5047289;28;20071;-74
2024/03/21 05:21:39;;;;;;;4.05;1.30;;;;;;;4.22;62.29;101932.44;5032880;28;20067;-72
2024/03/21 05:24:04;;;;;;;12.35;2.08;;;;;;;4.19;62.08;101937.59;5029192;28;20044;-73
2024/03/21 05:26:31;;;;;;;7.55;1.92;;;;;;;4.10;62.59;101936.72;5031719;28;20036;-73
2024/03/21 05:28:57;;;;;;;10.38;1.85;;;;;;;4.17;62.29;101949.66;5021389;28;20028;-72
2024/03/21 05:31:24;;;;;;;14.95;2.90;;;;;;;4.45;61.72;101956.66;5032390;28;20078;-70
2024/03/21 05:33:50;;;;;;;7.30;2.08;;;;;;;4.22;62.18;101963.47;5026488;28;20073;-71
2024/03/21 05:36:16;;;;;;;12.57;2.42;;;;;;;4.28;61.82;101970.41;5027150;28;20106;-69
2024/03/21 05:38:43;;;;;;;10.23;1.98;;;;;;;4.49;61.59;101971.34;5029665;28;20155;-70
2024/03/21 05:41:09;;;;;;;6.72;1.73;;;;;;;4.23;62.42;101974.72;5029651;28;20530;-70
2024/03/21 05:43:35;;;;;;;14.57;2.03;;;;;;;4.08;62.40;101983.28;5007331;28;20044;-73
2024/03/21 05:46:01;;;;;;;4.28;1.83;;;;;;;4.17;62.61;101982.44;5040724;28;21586;-73
2024/03/21 05:48:26;;;;;;;16.20;1.73;;;;;;;4.16;62.48;101980.72;5021541;28;20029;-71
2024/03/21 05:50:52;;;;;;;15.27;2.40;;;;;;;4.07;62.76;101984.13;5033110;28;20029;-71
2024/03/21 05:53:17;;;;;;;18.73;3.90;;;;;;;4.08;62.81;101985.00;5023206;28;20168;-71
2024/03/21 05:56:05;;;;;;;13.80;2.53;;;;;;;4.13;62.33;101981.56;5032224;28;20039;-71
2024/03/21 05:58:32;;;;;;;9.25;1.88;;;;;;;4.33;61.54;101984.25;5023218;28;20044;-69
2024/03/21 06:01:07;;;;;;;16.23;2.42;;;;;;;4.06;62.50;101989.31;5032102;28;20486;-71
2024/03/21 06:03:36;;;;;;;11.10;1.40;;;;;;;3.87;62.97;101990.91;5021250;28;20055;-69
2024/03/21 06:06:02;;;;;;;15.63;2.67;;;;;;;4.09;62.08;102002.25;5030890;28;20089;-71
2024/03/21 06:08:28;;;;;;;9.07;2.08;;;;;;;4.38;61.48;102005.81;5017418;28;20624;-68
2024/03/21 06:10:54;;;;;;;7.90;2.40;;;;;;;3.74;63.14;102005.50;5028959;28;20028;-67
2024/03/21 06:13:20;;;;;;;12.57;2.05;;;;;;;4.45;60.79;102013.63;5019378;28;20116;-68
2024/03/21 06:15:47;;;;;;;12.73;1.67;;;;;;;4.31;61.06;102006.66;5029914;28;20071;-68
2024/03/21 06:18:15;;;;;;;17.17;1.90;;;;;;;4.20;61.40;102019.53;5026513;28;20078;-72
2024/03/21 06:20:41;;;;;;;18.73;3.10;;;;;;;3.88;62.50;102015.94;5023455;28;20039;-68
2024/03/21 06:23:07;;;;;;;9.85;2.53;;;;;;;4.14;61.94;102016.06;5030727;28;20080;-70
2024/03/21 06:25:33;;;;;;;13.85;1.90;;;;;;;4.43;60.85;102024.84;5019723;28;20136;-70
2024/03/21 06:28:00;;;;;;;8.68;2.42;;;;;;;4.67;60.36;102007.66;5030387;28;20071;-67
2024/03/21 06:30:26;;;;;;;10.02;2.40;;;;;;;4.41;60.81;102023.97;5020456;28;20048;-70
2024/03/21 06:32:53;;;;;;;14.43;2.00;;;;;;;4.94;59.87;102029.31;5029552;28;20033;-72
2024/03/21 06:35:19;;;;;;;7.90;3.00;;;;;;;4.16;61.07;102032.47;5026044;28;20087;-75
2024/03/21 06:37:45;;;;;;;11.95;2.35;;;;;;;4.43;60.65;102039.47;5027618;28;20128;-73
2024/03/21 06:40:11;;;;;;;10.63;1.75;;;;;;;4.78;59.57;102036.16;5029272;28;20037;-70
2024/03/21 06:42:37;;;;;;;9.43;3.15;;;;;;;4.34;60.08;102042.94;5026221;28;20098;-68
2024/03/21 06:45:04;;;;;;;7.03;1.77;;;;;;;4.47;60.05;102036.06;5029704;28;20032;-67
2024/03/21 06:47:33;;;;;;;15.88;3.47;;;;;;;4.54;60.06;102037.84;5023453;28;20139;-69
2024/03/21 06:49:58;;;;;;;11.32;2.45;;;;;;;4.40;59.97;102045.53;5032662;28;20175;-71
2024/03/21 06:52:25;;;;;;;4.85;2.00;;;;;;;4.41;59.63;102049.84;5026463;28;20029;-71
2024/03/21 06:54:51;;;;;;;7.13;1.80;;;;;;;4.46;59.62;102051.59;5032313;28;20037;-69
2024/03/21 06:57:18;;;;;;;10.05;3.33;;;;;;;4.42;59.90;102048.97;5031933;28;20041;-70
2024/03/21 06:59:44;;;;;;;13.45;2.90;;;;;;;4.76;59.54;102048.25;5026002;28;20075;-69
2024/03/21 07:02:10;;;;;;;9.50;3.30;;;;;;;4.42;60.33;102074.88;5028904;28;20044;-72
2024/03/21 07:04:36;;;;;;;13.27;2.97;;;;;;;4.58;59.41;102069.75;5031385;28;20047;-72
2024/03/21 07:07:02;;;;;;;13.55;2.65;;;;;;;4.37;59.79;102071.41;5029615;28;20028;-71
2024/03/21 07:09:28;;;;;;;12.60;2.38;;;;;;;4.21;60.36;102069.59;5026298;28;20032;-71
2024/03/21 07:11:53;;;;;;;17.38;3.10;;;;;;;4.42;59.97;102079.19;5030029;28;20153;-70
2024/03/21 07:14:19;;;;;;;15.60;2.47;;;;;;;4.48;59.73;102080.97;5033002;28;20579;-71
2024/03/21 07:16:44;;;;;;;14.07;3.03;;;;;;;4.73;58.96;102084.50;5023900;28;20505;-72
2024/03/21 07:19:10;;;;;;;9.25;2.08;;;;;;;4.81;58.85;102083.69;5031759;28;20049;-71
2024/03/21 07:21:35;;;;;;;12.80;1.98;;;;;;;5.23;58.21;102084.69;5014817;28;20037;-71
2024/03/21 07:24:02;;;;;;;20.30;2.33;;;;;;;5.14;58.37;102082.06;5032107;28;20495;-69
2024/03/21 07:26:29;;;;;;;10.13;2.95;;;;;;;5.34;57.82;102086.41;5027421;28;20434;-72
2024/03/21 07:28:54;;;;;;;16.02;3.50;;;;;;;5.19;57.56;102095.91;5036279;28;20064;-73
2024/03/21 07:31:20;;;;;;;8.07;1.77;;;;;;;5.39;57.16;102097.66;5034564;28;20114;-75
2024/03/21 07:33:51;;;;;;;8.98;2.47;;;;;;;5.65;57.11;102101.13;5020464;28;20067;-73
2024/03/21 07:36:18;;;;;;;8.27;1.70;;;;;;;5.25;57.28;102110.59;5020031;28;21040;-72
2024/03/21 07:38:44;;;;;;;9.25;1.80;;;;;;;5.34;57.46;102117.53;5021470;28;21864;-73
2024/03/21 07:41:12;;;;;;;13.35;2.28;;;;;;;5.74;56.78;102109.78;5034996;28;20154;-71
2024/03/21 07:43:40;;;;;;;5.93;1.42;;;;;;;5.51;56.69;102128.78;5020605;28;20053;-72
2024/03/21 07:46:07;;;;;;;14.02;1.85;;;;;;;5.97;55.69;102126.22;5035044;28;20029;-70
2024/03/21 07:48:32;;;;;;;14.13;2.17;;;;;;;5.87;56.23;102150.44;5022823;28;20048;-71
2024/03/21 07:50:59;;;;;;;9.73;1.83;;;;;;;5.65;56.28;102145.22;5032145;28;20021;-72
2024/03/21 07:53:25;;;;;;;16.50;1.45;;;;;;;5.62;56.24;102147.84;5024722;28;20040;-67
2024/03/21 07:55:51;;;;;;;19.30;2.00;;;;;;;6.00;55.43;102144.38;5031814;28;20071;-71
2024/03/21 07:58:16;;;;;;;9.95;1.55;;;;;;;6.00;55.52;102153.91;5026946;28;20130;-72
2024/03/21 08:00:42;;;;;;;19.20;2.55;;;;;;;6.32;54.49;102148.69;5025544;28;20041;-72
2024/03/21 08:03:07;;;;;;;9.52;2.45;;;;;;;5.90;55.13;102152.16;5032359;28;20037;-72
2024/03/21 08:05:33;;;;;;;8.00;1.92;;;;;;;5.61;55.48;102161.69;5023231;28;20286;-72
2024/03/21 08:07:58;;;;;;;9.93;1.77;;;;;;;5.80;55.25;102169.47;5031468;28;20455;-72
2024/03/21 08:10:24;;;;;;;8.73;1.88;;;;;;;7.06;52.84;102164.06;5028778;28;20040;-73
2024/03/21 08:12:50;;;;;;;7.75;1.35;;;;;;;6.85;51.55;102159.81;5025967;28;20622;-72
2024/03/21 08:15:15;;;;;;;7.45;1.40;;;;;;;7.54;50.83;102164.66;5026659;28;20029;-71
2024/03/21 08:17:41;;;;;;;8.68;1.73;;;;;;;7.92;50.21;102167.00;5025596;28;20471;-72
2024/03/21 08:20:07;;;;;;;6.47;0.75;;;;;;;7.94;49.18;102165.25;5029936;28;20033;-72
2024/03/21 08:22:33;;;;;;;6.93;1.48;;;;;;;7.87;47.87;102167.91;5031497;28;20032;-72
2024/03/21 08:24:58;;;;;;;7.80;0.85;;;;;;;8.24;47.71;102171.06;5028226;28;20032;-72
2024/03/21 08:27:24;;;;;;;15.75;1.23;;;;;;;8.02;48.00;102174.72;5029902;28;20044;-72
2024/03/21 08:29:50;;;;;;;12.18;1.25;;;;;;;8.11;47.19;102188.56;5024172;28;20028;-73
2024/03/21 08:32:18;;;;;;;9.85;1.20;;;;;;;7.83;48.47;102187.03;5021467;28;20098;-73
2024/03/21 08:34:44;;;;;;;11.65;1.52;;;;;;;9.28;45.61;102195.09;5024240;28;20041;-73
2024/03/21 08:37:10;;;;;;;12.48;1.67;;;;;;;10.43;42.91;102189.81;5028909;28;20058;-71
2024/03/21 08:39:35;;;;;;;15.20;1.48;;;;;;;10.93;41.97;102195.88;5024395;28;20068;-72
2024/03/21 08:42:00;;;;;;;5.10;1.00;;;;;;;11.22;40.56;102199.63;5028669;28;20746;-72
2024/03/21 08:44:26;;;;;;;9.07;1.00;;;;;;;10.61;42.05;102202.53;5035455;28;20496;-71
2024/03/21 08:46:52;;;;;;;12.18;1.10;;;;;;;11.56;40.77;102197.09;5010241;28;20106;-71
2024/03/21 08:49:18;;;;;;;9.32;1.75;;;;;;;11.35;40.56;102190.63;5031106;28;20573;-71
2024/03/21 08:51:43;;;;;;;11.18;2.03;;;;;;;11.01;40.62;102190.47;5023051;28;20568;-72
2024/03/21 08:54:09;;;;;;;12.25;1.55;;;;;;;9.96;42.71;102201.97;5030975;28;20064;-71
2024/03/21 08:56:34;;;;;;;6.43;0.75;;;;;;;10.60;41.53;102200.81;5022159;28;20032;-73
2024/03/21 08:59:01;;;;;;;6.80;1.02;;;;;;;10.10;41.70;102200.00;5029814;28;20033;-71
2024/03/21 09:01:26;;;;;;;9.95;1.45;;;;;;;10.57;41.11;102208.75;5032875;28;20514;-71
2024/03/21 09:03:52;;;;;;;7.13;0.93;;;;;;;10.41;42.00;102216.00;5021793;28;20032;-71
2024/03/21 09:06:18;;;;;;;8.18;0.98;;;;;;;9.98;43.36;102221.09;5037107;28;20036;-72
2024/03/21 09:08:46;;;;;;;5.05;0.73;;;;;;;10.18;43.01;102216.38;5023480;28;20616;-72
2024/03/21 09:11:12;;;;;;;6.03;0.90;;;;;;;10.35;43.15;102225.72;5028801;28;20036;-71
2024/03/21 09:13:37;;;;;;;6.97;0.90;;;;;;;9.54;42.20;102233.00;5018994;28;20045;-71
2024/03/21 09:16:03;;;;;;;6.82;0.68;;;;;;;9.87;43.92;102236.06;5033021;28;20048;-72
2024/03/21 09:18:28;;;;;;;8.63;1.15;;;;;;;9.75;42.67;102251.00;5028245;28;20041;-72
2024/03/21 09:20:56;;;;;;;7.47;0.80;;;;;;;9.35;43.66;102250.69;5021901;28;20032;-72
2024/03/21 09:23:23;;;;;;;9.27;1.08;;;;;;;8.97;44.90;102265.91;5026840;28;20150;-71
2024/03/21 09:25:49;;;;;;;10.93;1.05;;;;;;;8.85;45.60;102268.66;5021402;28;20067;-71
2024/03/21 09:28:14;;;;;;;7.40;0.57;;;;;;;9.17;44.41;102276.09;5027342;28;20621;-71
2024/03/21 09:30:44;;;;;;;9.68;1.10;;;;;;;8.47;45.48;102275.06;5021410;28;20402;-71
2024/03/21 09:33:11;;;;;;;12.25;1.45;;;;;;;8.71;45.15;102278.34;5026907;28;20036;-72
2024/03/21 09:35:36;;;;;;;9.98;0.73;;;;;;;8.67;45.93;102281.81;5022423;28;20114;-72
2024/03/21 09:38:02;;;;;;;3.47;0.55;;;;;;;8.88;45.71;102289.47;5026671;28;20058;-71
2024/03/21 09:40:28;;;;;;;12.00;1.10;;;;;;;9.38;44.65;102282.81;5028890;28;20032;-71
2024/03/21 09:42:55;;;;;;;6.60;0.90;;;;;;;9.36;43.89;102286.31;5020992;28;20048;-71
2024/03/21 09:45:23;;;;;;;6.38;0.95;;;;;;;9.77;43.49;102291.00;5026549;28;20648;-72
2024/03/21 09:47:50;;;;;;;6.75;0.93;;;;;;;9.87;43.38;102290.91;5019790;28;20044;-71
2024/03/21 09:50:15;;;;;;;3.72;0.55;;;;;;;9.59;43.17;102293.88;5027360;28;20102;-71
2024/03/21 09:52:41;;;;;;;8.15;1.58;;;;;;;9.50;43.61;102294.84;5022340;28;20040;-73
2024/03/21 09:55:14;;;;;;;11.70;1.55;;;;;;;9.59;43.66;102296.47;5033276;28;20078;-72
2024/03/21 09:57:42;;;;;;;7.63;0.82;;;;;;;9.05;44.16;102291.03;5022105;28;20097;-72
2024/03/21 10:00:14;;;;;;;12.48;1.65;;;;;;;9.45;43.18;102294.03;5025493;28;20040;-72
2024/03/21 10:02:44;;;;;;;8.30;0.70;;;;;;;9.62;43.05;102295.56;5020197;28;20079;-71
2024/03/21 10:05:20;;;;;;;11.88;1.17;;;;;;;9.89;42.60;102294.34;5028315;28;20863;-71
2024/03/21 10:07:47;;;;;;;10.30;0.77;;;;;;;10.16;43.46;102287.84;5020167;28;20697;-72
2024/03/21 10:10:13;;;;;;;4.25;0.75;;;;;;;9.72;43.19;102298.03;5025538;28;20219;-71
2024/03/21 10:12:39;;;;;;;6.47;1.00;;;;;;;9.51;43.39;102290.50;5014055;28;20115;-73
2024/03/21 10:15:05;;;;;;;10.00;0.90;;;;;;;9.30;44.15;102297.72;5023347;28;20037;-72
2024/03/21 10:17:30;;;;;;;9.63;1.05;;;;;;;9.08;44.73;102302.31;5028121;28;20044;-71
2024/03/21 10:19:57;;;;;;;9.82;0.80;;;;;;;8.80;45.50;102293.88;5017469;28;20751;-71
2024/03/21 10:22:23;;;;;;;8.43;1.00;;;;;;;9.04;45.48;102295.38;5026406;28;20036;-72
2024/03/21 10:24:53;;;;;;;11.50;0.88;;;;;;;9.41;43.84;102300.19;5004302;28;20060;-71
2024/03/21 10:27:19;;;;;;;4.70;0.63;;;;;;;9.54;45.07;102293.03;5033470;28;20623;-72
2024/03/21 10:29:45;;;;;;;12.70;1.25;;;;;;;10.03;43.76;102297.63;5020485;28;20059;-71
2024/03/21 10:32:16;;;;;;;12.43;0.70;;;;;;;8.71;44.82;102310.47;5022809;28;20389;-71
2024/03/21 10:34:45;;;;;;;7.70;0.45;;;;;;;9.40;44.78;102301.91;5020785;28;20044;-73
2024/03/21 10:37:11;;;;;;;10.45;1.27;;;;;;;9.96;44.78;102301.22;5038241;28;20098;-72
2024/03/21 10:39:37;;;;;;;13.20;1.30;;;;;;;9.76;42.41;102301.47;5025773;28;20537;-74
2024/03/21 10:42:05;;;;;;;9.57;0.90;;;;;;;9.56;44.20;102301.72;5024136;28;20216;-72
2024/03/21 10:44:31;;;;;;;9.95;1.20;;;;;;;9.75;42.97;102303.22;5029214;28;20045;-72
2024/03/21 10:46:58;;;;;;;15.82;1.42;;;;;;;9.88;42.13;102310.91;5017574;28;20032;-72
2024/03/21 10:49:23;;;;;;;9.40;0.82;;;;;;;10.10;42.89;102304.50;5028241;28;20029;-72
2024/03/21 10:51:52;;;;;;;6.55;1.05;;;;;;;10.76;42.00;102321.69;5017283;28;20667;-72
2024/03/21 10:54:19;;;;;;;6.32;1.23;;;;;;;10.64;41.53;102328.00;5027636;28;20158;-72
2024/03/21 10:56:46;;;;;;;8.82;0.60;;;;;;;9.85;42.47;102329.22;5018227;28;20044;-74
2024/03/21 10:59:15;;;;;;;11.52;2.13;;;;;;;10.36;42.09;102327.59;5029093;28;20057;-73
2024/03/21 11:01:43;;;;;;;10.43;1.20;;;;;;;9.96;42.61;102337.78;5003599;28;20041;-72
2024/03/21 11:04:16;;;;;;;6.35;0.85;;;;;;;10.36;41.57;102331.97;5027668;28;20123;-72
2024/03/21 11:06:47;;;;;;;11.43;0.85;;;;;;;11.16;40.47;102327.97;5018302;28;20038;-72
2024/03/21 11:09:15;;;;;;;7.05;0.70;;;;;;;11.19;39.97;102333.13;5023058;28;20560;-72
2024/03/21 11:11:41;;;;;;;10.80;0.85;;;;;;;9.84;42.73;102343.19;5015819;28;20061;-72
2024/03/21 11:14:09;;;;;;;9.63;0.60;;;;;;;9.42;43.03;102348.03;5023443;28;20660;-72
2024/03/21 11:16:40;;;;;;;5.68;0.65;;;;;;;9.35;43.42;102339.41;5022371;28;20036;-73
2024/03/21 11:19:06;;;;;;;6.50;1.00;;;;;;;8.55;44.39;102355.78;5027556;28;21482;-72
2024/03/21 11:21:31;;;;;;;19.70;1.45;;;;;;;7.93;45.72;102361.38;5021497;28;20071;-73
2024/03/21 11:23:57;;;;;;;9.63;0.80;;;;;;;8.08;45.64;102357.81;5021733;28;20048;-73
2024/03/21 11:26:22;;;;;;;18.50;0.90;;;;;;;7.67;46.60;102358.91;5028270;28;20036;-73